Saxaren — SKHW — position and weather

sailwx.info

Track history (hours):
 
Tides and Currents Weather Stations Pressure Air Temp Water Temp Dewpoint Dewpoint Depression Visibility Wind Speed Wind Dir Waves Ship Positions

Saxaren

Last reported at 2015-Dec-07 07:15 UTC. Time now 2016-Feb-06 13:41 UTC.
Position N 59°20' E 018°12'.
Warning: this ship's position is months out of date.

Length 38 m; draft 1.8 m.

Type: Passenger vessel. MMSI: 265512110.

Date/timePositionNaut miles runAvg speedWind from/ knotsBaromVisibWave heightAir tempDewpointWater temp
2015-Dec-07 07:15N 59°20' E 018°12'4 5.3
2015-Dec-07 06:33N 59°20' E 018°05'0 0.0
2015-Dec-07 05:33N 59°20' E 018°05'0 0.0
2015-Dec-07 04:33N 59°20' E 018°05'0 0.0
2015-Dec-07 03:33N 59°20' E 018°05'0 0.0
2015-Dec-07 02:33N 59°20' E 018°05'0 0.0
2015-Dec-07 01:33N 59°20' E 018°05'0 0.0
2015-Dec-07 00:33N 59°20' E 018°05'0 0.0
2015-Dec-06 23:33N 59°20' E 018°05'0 0.0
2015-Dec-06 22:33N 59°20' E 018°05'0 0.0
2015-Dec-06 21:33N 59°20' E 018°05'0 0.0
2015-Dec-06 20:33N 59°20' E 018°05'0 0.0
2015-Dec-06 19:33N 59°20' E 018°05'0 0.0
2015-Dec-06 18:33N 59°20' E 018°05'0 0.0
2015-Dec-04 15:33N 59°19' E 018°05'0 0.4
2015-Dec-04 14:33N 59°20' E 018°04'0 0.0
2015-Dec-04 13:33N 59°20' E 018°04'0 0.0
2015-Dec-04 12:33N 59°20' E 018°04'0 0.0
2015-Dec-04 11:33N 59°20' E 018°04'0 0.0
2015-Dec-04 10:33N 59°20' E 018°04'25 4.9
2015-Dec-04 05:33N 59°28' E 018°50'2 1.7
2015-Dec-04 04:31N 59°30' E 018°51'0 0.0
2015-Dec-04 03:32N 59°30' E 018°51'0 0.0
2015-Dec-04 02:31N 59°30' E 018°51'0 0.0
2015-Dec-04 01:30N 59°30' E 018°51'0 0.0
2015-Dec-04 00:32N 59°30' E 018°51'0 0.0
2015-Dec-03 23:28N 59°30' E 018°51'0 0.0
2015-Dec-03 22:32N 59°30' E 018°51'0 0.0
2015-Dec-03 21:27N 59°30' E 018°51'0 0.0
2015-Dec-03 20:16N 59°30' E 018°51'0 0.0
2015-Dec-03 19:30N 59°30' E 018°51'0 0.0
2015-Dec-03 18:12N 59°30' E 018°51'0 0.4
2015-Dec-03 17:32N 59°30' E 018°50'22 7.1
2015-Dec-03 14:28N 59°20' E 018°12'4 4.3
2015-Dec-03 13:34N 59°20' E 018°05'0 0.0
2015-Dec-03 12:33N 59°20' E 018°05'0 0.0
2015-Dec-03 11:33N 59°20' E 018°05'0 0.0
2015-Dec-03 10:34N 59°20' E 018°05'0 0.0
2015-Dec-03 09:33N 59°20' E 018°05'0 0.0
2015-Dec-03 08:33N 59°20' E 018°05'0 0.0
2015-Dec-03 07:33N 59°20' E 018°05'0 0.0
2015-Dec-03 06:33N 59°20' E 018°05'0 0.0
2015-Dec-03 05:33N 59°20' E 018°05'0 0.0
2015-Dec-03 04:33N 59°20' E 018°05'0 0.0
2015-Dec-03 03:34N 59°20' E 018°05'0 0.0
2015-Dec-03 02:33N 59°20' E 018°05'0 0.0
2015-Dec-03 01:33N 59°20' E 018°05'0 0.0
2015-Dec-03 00:30N 59°20' E 018°05'0 0.0
2015-Dec-02 23:33N 59°20' E 018°05'0 0.0
2015-Dec-02 22:33N 59°20' E 018°05'0 0.0
2015-Dec-02 21:33N 59°20' E 018°05'0 0.0
2015-Dec-02 20:33N 59°20' E 018°05'0 0.0
2015-Dec-02 19:34N 59°20' E 018°05'0 0.0
2015-Dec-02 18:33N 59°20' E 018°05'0 0.0
2015-Dec-02 17:33N 59°20' E 018°05'26 4.0
2015-Dec-02 11:06N 59°30' E 018°51'24 6.7
2015-Dec-02 07:33N 59°19' E 018°09'3 2.5
2015-Dec-02 06:33N 59°20' E 018°05'0 0.0
2015-Dec-02 05:33N 59°20' E 018°05'0 0.0
2015-Dec-02 04:33N 59°20' E 018°05'0 0.0
2015-Dec-02 03:33N 59°20' E 018°05'0 0.0
2015-Dec-02 02:33N 59°20' E 018°05'0 0.0
2015-Dec-02 01:33N 59°20' E 018°05'0 0.0
2015-Dec-02 00:33N 59°20' E 018°05'0 0.0
2015-Dec-01 23:33N 59°20' E 018°05'0 0.0
2015-Dec-01 22:33N 59°20' E 018°05'0 0.0
2015-Dec-01 21:33N 59°20' E 018°05'0 0.0
2015-Dec-01 20:33N 59°20' E 018°05'0 0.0
2015-Dec-01 19:33N 59°20' E 018°05'0 0.0
2015-Dec-01 18:33N 59°20' E 018°05'0 0.0
2015-Dec-01 17:33N 59°20' E 018°05'0 0.0
2015-Dec-01 16:33N 59°20' E 018°05'0 0.0
2015-Dec-01 15:33N 59°20' E 018°05'0 0.0
2015-Dec-01 14:33N 59°20' E 018°05'0 0.0
2015-Dec-01 13:33N 59°20' E 018°05'0 0.0
2015-Dec-01 12:33N 59°20' E 018°05'0 0.0
2015-Dec-01 11:33N 59°20' E 018°05'0 0.0
2015-Dec-01 10:33N 59°20' E 018°05'0 0.0
2015-Dec-01 09:33N 59°20' E 018°05'0 0.0
2015-Dec-01 08:33N 59°20' E 018°05'0 0.0
2015-Dec-01 07:33N 59°20' E 018°05'0 0.0
2015-Dec-01 06:33N 59°20' E 018°05'0 0.0
2015-Dec-01 05:33N 59°20' E 018°05'0 0.0
2015-Dec-01 04:33N 59°20' E 018°05'0 0.0
2015-Dec-01 03:33N 59°20' E 018°05'0 0.0
2015-Dec-01 02:33N 59°20' E 018°05'0 0.0
2015-Dec-01 01:33N 59°20' E 018°05'0 0.0
2015-Dec-01 00:33N 59°20' E 018°05'0 0.0
2015-Nov-30 23:33N 59°20' E 018°05'0 0.0
2015-Nov-30 22:33N 59°20' E 018°05'0 0.0
2015-Nov-30 21:33N 59°20' E 018°05'0 0.0
2015-Nov-30 20:33N 59°20' E 018°05'0 0.0
2015-Nov-30 19:33N 59°20' E 018°05'0 0.0
2015-Nov-30 18:33N 59°20' E 018°05'0 0.0
2015-Nov-30 17:33N 59°20' E 018°05'0 0.0
2015-Nov-30 16:33N 59°20' E 018°05'0 0.0
2015-Nov-30 15:33N 59°20' E 018°05'0 0.0
2015-Nov-30 14:33N 59°20' E 018°05'0 0.0
2015-Nov-30 13:33N 59°20' E 018°05'0 0.0
2015-Nov-30 12:33N 59°20' E 018°05'0 0.0
2015-Nov-30 11:33N 59°20' E 018°05'0 0.0
2015-Nov-30 10:33N 59°20' E 018°05'0 0.0
2015-Nov-30 09:33N 59°20' E 018°05'0 0.0
2015-Nov-30 08:33N 59°20' E 018°05'0 0.0
2015-Nov-30 07:33N 59°20' E 018°05'0 0.0
2015-Nov-30 06:33N 59°20' E 018°05'0 0.0
2015-Nov-30 05:33N 59°20' E 018°05'0 0.0
2015-Nov-30 04:33N 59°20' E 018°05'0 0.0
2015-Nov-30 03:33N 59°20' E 018°05'0 0.0
2015-Nov-30 02:33N 59°20' E 018°05'0 0.0
2015-Nov-30 01:33N 59°20' E 018°05'0 0.0
2015-Nov-30 00:33N 59°20' E 018°05'0 0.0
2015-Nov-29 23:33N 59°20' E 018°05'0 0.0
2015-Nov-29 22:33N 59°20' E 018°05'0 0.0
2015-Nov-29 21:33N 59°20' E 018°05'0 0.0
2015-Nov-29 20:33N 59°20' E 018°05'0 0.0
2015-Nov-29 19:33N 59°20' E 018°05'0 0.0
2015-Nov-29 18:33N 59°20' E 018°05'0 0.0
2015-Nov-27 15:33N 59°20' E 018°05'0 0.3
2015-Nov-27 14:33N 59°20' E 018°05'0 0.0
2015-Nov-27 13:33N 59°20' E 018°04'0 0.0
2015-Nov-27 12:33N 59°20' E 018°04'0 0.0
2015-Nov-27 11:33N 59°20' E 018°04'0 0.0
2015-Nov-27 10:33N 59°20' E 018°04'  
Track history (hours):
 
Tides and Currents Weather Stations Pressure Air Temp Water Temp Dewpoint Dewpoint Depression Visibility Wind Speed Wind Dir Waves Ship Positions

Saxaren

Last reported at 2015-Dec-07 07:15 UTC. Time now 2016-Feb-06 13:41 UTC.
Position N 59°20' E 018°12'.
Warning: this ship's position is months out of date.

Length 38 m; draft 1.8 m.

Type: Passenger vessel. MMSI: 265512110.

Date/timePositionNaut miles runAvg speedWind from/ knotsBaromVisibWave heightAir tempDewpointWater temp
2015-Dec-07 07:15N 59°20' E 018°12'4 5.3
2015-Dec-07 06:33N 59°20' E 018°05'0 0.0
2015-Dec-07 05:33N 59°20' E 018°05'0 0.0
2015-Dec-07 04:33N 59°20' E 018°05'0 0.0
2015-Dec-07 03:33N 59°20' E 018°05'0 0.0
2015-Dec-07 02:33N 59°20' E 018°05'0 0.0
2015-Dec-07 01:33N 59°20' E 018°05'0 0.0
2015-Dec-07 00:33N 59°20' E 018°05'0 0.0
2015-Dec-06 23:33N 59°20' E 018°05'0 0.0
2015-Dec-06 22:33N 59°20' E 018°05'0 0.0
2015-Dec-06 21:33N 59°20' E 018°05'0 0.0
2015-Dec-06 20:33N 59°20' E 018°05'0 0.0
2015-Dec-06 19:33N 59°20' E 018°05'0 0.0
2015-Dec-06 18:33N 59°20' E 018°05'0 0.0
2015-Dec-04 15:33N 59°19' E 018°05'0 0.4
2015-Dec-04 14:33N 59°20' E 018°04'0 0.0
2015-Dec-04 13:33N 59°20' E 018°04'0 0.0
2015-Dec-04 12:33N 59°20' E 018°04'0 0.0
2015-Dec-04 11:33N 59°20' E 018°04'0 0.0
2015-Dec-04 10:33N 59°20' E 018°04'25 4.9
2015-Dec-04 05:33N 59°28' E 018°50'2 1.7
2015-Dec-04 04:31N 59°30' E 018°51'0 0.0
2015-Dec-04 03:32N 59°30' E 018°51'0 0.0
2015-Dec-04 02:31N 59°30' E 018°51'0 0.0
2015-Dec-04 01:30N 59°30' E 018°51'0 0.0
2015-Dec-04 00:32N 59°30' E 018°51'0 0.0
2015-Dec-03 23:28N 59°30' E 018°51'0 0.0
2015-Dec-03 22:32N 59°30' E 018°51'0 0.0
2015-Dec-03 21:27N 59°30' E 018°51'0 0.0
2015-Dec-03 20:16N 59°30' E 018°51'0 0.0
2015-Dec-03 19:30N 59°30' E 018°51'0 0.0
2015-Dec-03 18:12N 59°30' E 018°51'0 0.4
2015-Dec-03 17:32N 59°30' E 018°50'22 7.1
2015-Dec-03 14:28N 59°20' E 018°12'4 4.3
2015-Dec-03 13:34N 59°20' E 018°05'0 0.0
2015-Dec-03 12:33N 59°20' E 018°05'0 0.0
2015-Dec-03 11:33N 59°20' E 018°05'0 0.0
2015-Dec-03 10:34N 59°20' E 018°05'0 0.0
2015-Dec-03 09:33N 59°20' E 018°05'0 0.0
2015-Dec-03 08:33N 59°20' E 018°05'0 0.0
2015-Dec-03 07:33N 59°20' E 018°05'0 0.0
2015-Dec-03 06:33N 59°20' E 018°05'0 0.0
2015-Dec-03 05:33N 59°20' E 018°05'0 0.0
2015-Dec-03 04:33N 59°20' E 018°05'0 0.0
2015-Dec-03 03:34N 59°20' E 018°05'0 0.0
2015-Dec-03 02:33N 59°20' E 018°05'0 0.0
2015-Dec-03 01:33N 59°20' E 018°05'0 0.0
2015-Dec-03 00:30N 59°20' E 018°05'0 0.0
2015-Dec-02 23:33N 59°20' E 018°05'0 0.0
2015-Dec-02 22:33N 59°20' E 018°05'0 0.0
2015-Dec-02 21:33N 59°20' E 018°05'0 0.0
2015-Dec-02 20:33N 59°20' E 018°05'0 0.0
2015-Dec-02 19:34N 59°20' E 018°05'0 0.0
2015-Dec-02 18:33N 59°20' E 018°05'0 0.0
2015-Dec-02 17:33N 59°20' E 018°05'26 4.0
2015-Dec-02 11:06N 59°30' E 018°51'24 6.7
2015-Dec-02 07:33N 59°19' E 018°09'3 2.5
2015-Dec-02 06:33N 59°20' E 018°05'0 0.0
2015-Dec-02 05:33N 59°20' E 018°05'0 0.0
2015-Dec-02 04:33N 59°20' E 018°05'0 0.0
2015-Dec-02 03:33N 59°20' E 018°05'0 0.0
2015-Dec-02 02:33N 59°20' E 018°05'0 0.0
2015-Dec-02 01:33N 59°20' E 018°05'0 0.0
2015-Dec-02 00:33N 59°20' E 018°05'0 0.0
2015-Dec-01 23:33N 59°20' E 018°05'0 0.0
2015-Dec-01 22:33N 59°20' E 018°05'0 0.0
2015-Dec-01 21:33N 59°20' E 018°05'0 0.0
2015-Dec-01 20:33N 59°20' E 018°05'0 0.0
2015-Dec-01 19:33N 59°20' E 018°05'0 0.0
2015-Dec-01 18:33N 59°20' E 018°05'0 0.0
2015-Dec-01 17:33N 59°20' E 018°05'0 0.0
2015-Dec-01 16:33N 59°20' E 018°05'0 0.0
2015-Dec-01 15:33N 59°20' E 018°05'0 0.0
2015-Dec-01 14:33N 59°20' E 018°05'0 0.0
2015-Dec-01 13:33N 59°20' E 018°05'0 0.0
2015-Dec-01 12:33N 59°20' E 018°05'0 0.0
2015-Dec-01 11:33N 59°20' E 018°05'0 0.0
2015-Dec-01 10:33N 59°20' E 018°05'0 0.0
2015-Dec-01 09:33N 59°20' E 018°05'0 0.0
2015-Dec-01 08:33N 59°20' E 018°05'0 0.0
2015-Dec-01 07:33N 59°20' E 018°05'0 0.0
2015-Dec-01 06:33N 59°20' E 018°05'0 0.0
2015-Dec-01 05:33N 59°20' E 018°05'0 0.0
2015-Dec-01 04:33N 59°20' E 018°05'0 0.0
2015-Dec-01 03:33N 59°20' E 018°05'0 0.0
2015-Dec-01 02:33N 59°20' E 018°05'0 0.0
2015-Dec-01 01:33N 59°20' E 018°05'0 0.0
2015-Dec-01 00:33N 59°20' E 018°05'0 0.0
2015-Nov-30 23:33N 59°20' E 018°05'0 0.0
2015-Nov-30 22:33N 59°20' E 018°05'0 0.0
2015-Nov-30 21:33N 59°20' E 018°05'0 0.0
2015-Nov-30 20:33N 59°20' E 018°05'0 0.0
2015-Nov-30 19:33N 59°20' E 018°05'0 0.0
2015-Nov-30 18:33N 59°20' E 018°05'0 0.0
2015-Nov-30 17:33N 59°20' E 018°05'0 0.0
2015-Nov-30 16:33N 59°20' E 018°05'0 0.0
2015-Nov-30 15:33N 59°20' E 018°05'0 0.0
2015-Nov-30 14:33N 59°20' E 018°05'0 0.0
2015-Nov-30 13:33N 59°20' E 018°05'0 0.0
2015-Nov-30 12:33N 59°20' E 018°05'0 0.0
2015-Nov-30 11:33N 59°20' E 018°05'0 0.0
2015-Nov-30 10:33N 59°20' E 018°05'0 0.0
2015-Nov-30 09:33N 59°20' E 018°05'0 0.0
2015-Nov-30 08:33N 59°20' E 018°05'0 0.0
2015-Nov-30 07:33N 59°20' E 018°05'0 0.0
2015-Nov-30 06:33N 59°20' E 018°05'0 0.0
2015-Nov-30 05:33N 59°20' E 018°05'0 0.0
2015-Nov-30 04:33N 59°20' E 018°05'0 0.0
2015-Nov-30 03:33N 59°20' E 018°05'0 0.0
2015-Nov-30 02:33N 59°20' E 018°05'0 0.0
2015-Nov-30 01:33N 59°20' E 018°05'0 0.0
2015-Nov-30 00:33N 59°20' E 018°05'0 0.0
2015-Nov-29 23:33N 59°20' E 018°05'0 0.0
2015-Nov-29 22:33N 59°20' E 018°05'0 0.0
2015-Nov-29 21:33N 59°20' E 018°05'0 0.0
2015-Nov-29 20:33N 59°20' E 018°05'0 0.0
2015-Nov-29 19:33N 59°20' E 018°05'0 0.0
2015-Nov-29 18:33N 59°20' E 018°05'0 0.0
2015-Nov-27 15:33N 59°20' E 018°05'0 0.3
2015-Nov-27 14:33N 59°20' E 018°05'0 0.0
2015-Nov-27 13:33N 59°20' E 018°04'0 0.0
2015-Nov-27 12:33N 59°20' E 018°04'0 0.0
2015-Nov-27 11:33N 59°20' E 018°04'0 0.0
2015-Nov-27 10:33N 59°20' E 018°04'  

Dump ship's entire track history